createdAt,value
2018-12-03T00:00:10.023Z,99.90
2018-12-03T00:02:40.256Z,99.90
2018-12-03T00:05:10.646Z,99.90
2018-12-03T00:07:41.010Z,99.90
2018-12-03T00:10:11.773Z,99.90
2018-12-03T00:12:41.964Z,99.90
2018-12-03T00:15:12.301Z,99.90
2018-12-03T00:17:42.696Z,99.90
2018-12-03T00:20:13.187Z,99.90
2018-12-03T00:22:43.469Z,99.90
2018-12-03T00:25:13.824Z,99.90
2018-12-03T00:27:52.555Z,99.90
2018-12-03T00:30:23.141Z,99.90
2018-12-03T00:32:53.398Z,99.90
2018-12-03T00:35:23.837Z,99.90
2018-12-03T00:37:54.031Z,99.90
2018-12-03T00:40:24.363Z,99.90
2018-12-03T00:42:54.712Z,99.90
2018-12-03T00:45:25.129Z,99.90
2018-12-03T00:47:55.649Z,99.90
2018-12-03T00:50:32.431Z,99.90
2018-12-03T00:53:02.798Z,99.90
2018-12-03T00:55:33.170Z,99.90
2018-12-03T00:58:03.420Z,99.90
2018-12-03T01:00:33.663Z,99.90
2018-12-03T01:03:03.953Z,99.90
2018-12-03T01:05:34.410Z,99.90
2018-12-03T01:08:04.677Z,99.90
2018-12-03T01:10:35.036Z,99.90
2018-12-03T01:13:05.768Z,99.90
2018-12-03T01:15:36.074Z,99.90
2018-12-03T01:18:06.535Z,99.90
2018-12-03T01:20:36.851Z,99.90
2018-12-03T01:23:07.279Z,99.90
2018-12-03T01:25:38.498Z,99.90
2018-12-03T01:28:08.943Z,99.90
2018-12-03T01:30:39.243Z,99.90
2018-12-03T01:33:09.393Z,99.90
2018-12-03T01:35:39.597Z,99.90
2018-12-03T01:38:09.874Z,99.90
2018-12-03T01:40:40.163Z,99.90
2018-12-03T01:43:10.699Z,99.90
2018-12-03T01:45:40.983Z,99.90
2018-12-03T01:48:11.230Z,99.90
2018-12-03T01:50:41.491Z,99.90
2018-12-03T01:53:11.838Z,99.90
2018-12-03T01:55:42.371Z,99.90
2018-12-03T01:58:12.715Z,99.90
2018-12-03T02:00:42.946Z,99.90
2018-12-03T02:03:13.289Z,99.90
2018-12-03T02:05:43.700Z,99.90
2018-12-03T02:08:13.893Z,99.90
2018-12-03T02:10:44.245Z,99.90
2018-12-03T02:13:14.577Z,99.90
2018-12-03T02:15:44.999Z,99.90
2018-12-03T02:18:15.467Z,99.90
2018-12-03T02:20:45.699Z,99.90
2018-12-03T02:23:16.007Z,99.90
2018-12-03T02:25:46.519Z,99.90
2018-12-03T02:28:16.954Z,99.90
2018-12-03T02:30:52.468Z,99.90
2018-12-03T02:33:22.941Z,99.90
2018-12-03T02:35:53.074Z,99.90
2018-12-03T02:38:23.379Z,99.90
2018-12-03T02:40:53.888Z,99.90
2018-12-03T02:43:24.432Z,99.90
2018-12-03T02:45:54.591Z,99.90
2018-12-03T02:48:24.960Z,99.90
2018-12-03T02:50:55.285Z,99.90
2018-12-03T02:53:25.514Z,99.90
2018-12-03T02:55:55.922Z,99.90
2018-12-03T02:58:26.319Z,99.90
2018-12-03T03:00:56.575Z,99.90
2018-12-03T03:03:26.889Z,99.90
2018-12-03T03:05:57.210Z,99.90
2018-12-03T03:08:27.689Z,99.90
2018-12-03T03:10:57.988Z,99.90
2018-12-03T03:13:28.120Z,99.90
2018-12-03T03:15:58.471Z,99.90
2018-12-03T03:18:28.882Z,99.90
2018-12-03T03:20:59.061Z,99.90
2018-12-03T03:23:29.413Z,99.90
2018-12-03T03:25:59.822Z,99.90
2018-12-03T03:28:30.285Z,99.90
2018-12-03T03:31:00.863Z,99.90
2018-12-03T03:33:31.181Z,99.90
2018-12-03T03:36:01.540Z,99.90
2018-12-03T03:38:32.104Z,99.90
2018-12-03T03:41:02.503Z,99.90
2018-12-03T03:43:32.797Z,99.90
2018-12-03T03:46:03.224Z,99.90
2018-12-03T03:48:33.643Z,99.90
2018-12-03T03:51:03.792Z,99.90
2018-12-03T03:53:34.127Z,99.90
2018-12-03T03:56:04.310Z,99.90
2018-12-03T03:58:34.902Z,99.90
2018-12-03T04:01:05.303Z,99.90
2018-12-03T04:03:35.508Z,99.90
2018-12-03T04:06:05.717Z,99.90
2018-12-03T04:08:36.197Z,99.90
2018-12-03T04:11:06.958Z,99.90
2018-12-03T04:13:37.496Z,99.90
2018-12-03T04:16:07.898Z,99.90
2018-12-03T04:18:38.049Z,99.90
2018-12-03T04:21:08.448Z,99.90
2018-12-03T04:23:38.854Z,99.90
2018-12-03T04:26:09.226Z,99.90
2018-12-03T04:28:39.590Z,99.90
2018-12-03T04:31:09.954Z,99.90
2018-12-03T04:33:40.337Z,99.90
2018-12-03T04:36:10.760Z,99.90
2018-12-03T04:38:41.132Z,99.90
2018-12-03T04:41:11.311Z,99.90
2018-12-03T04:43:41.663Z,99.90
2018-12-03T04:46:11.996Z,99.90
2018-12-03T04:48:42.555Z,99.90
2018-12-03T04:51:12.856Z,99.90
2018-12-03T04:53:43.160Z,99.90
2018-12-03T04:56:13.470Z,99.90
2018-12-03T04:58:43.901Z,99.90
2018-12-03T05:01:14.054Z,99.90
2018-12-03T05:03:44.402Z,99.90
2018-12-03T05:06:14.458Z,99.90
2018-12-03T05:08:44.697Z,99.90
2018-12-03T05:11:14.981Z,99.90
2018-12-03T05:13:45.327Z,99.90
2018-12-03T05:16:15.654Z,99.90
2018-12-03T05:18:45.904Z,99.90
2018-12-03T05:21:16.238Z,99.90
2018-12-03T05:23:46.638Z,99.90
2018-12-03T05:26:17.053Z,99.90
2018-12-03T05:28:47.361Z,99.90
2018-12-03T05:31:22.888Z,99.90
2018-12-03T05:33:53.162Z,99.90
2018-12-03T05:36:23.620Z,99.90
2018-12-03T05:38:53.781Z,99.90
2018-12-03T05:41:24.220Z,99.90
2018-12-03T05:43:54.551Z,99.90
2018-12-03T05:46:24.890Z,99.90
2018-12-03T05:48:55.210Z,99.90
2018-12-03T05:51:25.464Z,99.90
2018-12-03T05:53:55.762Z,99.90
2018-12-03T05:56:26.180Z,99.90
2018-12-03T05:58:56.378Z,99.90
2018-12-03T06:01:26.875Z,99.90
2018-12-03T06:03:57.055Z,99.90
2018-12-03T06:06:27.365Z,99.90
2018-12-03T06:08:57.729Z,99.90
2018-12-03T06:11:28.124Z,99.90
2018-12-03T06:13:58.438Z,99.90
2018-12-03T06:16:28.877Z,99.90
2018-12-03T06:18:59.259Z,99.90
2018-12-03T06:21:29.724Z,99.90
2018-12-03T06:24:00.916Z,99.90
2018-12-03T06:26:31.193Z,99.90
2018-12-03T06:29:01.542Z,99.90
2018-12-03T06:31:31.971Z,99.90
2018-12-03T06:34:02.276Z,99.90
2018-12-03T06:36:32.638Z,99.90
2018-12-03T06:39:03.141Z,99.90
2018-12-03T06:41:33.328Z,99.90
2018-12-03T06:44:03.588Z,99.90
2018-12-03T06:46:33.996Z,99.90
2018-12-03T06:49:04.442Z,99.90
2018-12-03T06:51:34.588Z,99.90
2018-12-03T06:54:05.090Z,99.90
2018-12-03T06:56:35.508Z,99.90
2018-12-03T06:59:06.083Z,99.90
2018-12-03T07:01:36.294Z,99.90
2018-12-03T07:04:06.978Z,99.90
2018-12-03T07:06:37.490Z,99.90
2018-12-03T07:09:11.899Z,99.90
2018-12-03T07:11:42.923Z,99.90
2018-12-03T07:14:13.282Z,99.90
2018-12-03T07:16:43.673Z,99.90
2018-12-03T07:19:14.081Z,99.90
2018-12-03T07:21:44.563Z,99.90
2018-12-03T07:24:14.810Z,99.90
2018-12-03T07:26:45.189Z,99.90
2018-12-03T07:29:15.661Z,99.90
2018-12-03T07:31:46.094Z,99.90
2018-12-03T07:34:16.296Z,99.90
2018-12-03T07:36:46.640Z,99.90
2018-12-03T07:39:17.020Z,99.90
2018-12-03T07:41:47.326Z,99.90
2018-12-03T07:44:17.681Z,99.90
2018-12-03T07:46:48.243Z,99.90
2018-12-03T07:49:18.706Z,99.90
2018-12-03T07:51:48.941Z,99.90
2018-12-03T07:54:19.258Z,99.90
2018-12-03T07:56:49.561Z,99.90
2018-12-03T07:59:19.730Z,99.90
2018-12-03T08:01:50.076Z,99.90
2018-12-03T08:04:20.821Z,99.90
2018-12-03T08:06:51.164Z,99.90
2018-12-03T08:09:21.438Z,99.90
2018-12-03T08:11:51.467Z,99.90
2018-12-03T08:14:21.753Z,99.90
2018-12-03T08:16:52.011Z,99.90
2018-12-03T08:19:22.406Z,99.90
2018-12-03T08:21:52.638Z,99.90
2018-12-03T08:24:22.975Z,99.90
2018-12-03T08:26:53.153Z,99.90
2018-12-03T08:29:23.573Z,99.90
2018-12-03T08:31:53.977Z,99.90
2018-12-03T08:34:24.349Z,99.90
2018-12-03T08:36:54.647Z,99.90
2018-12-03T08:39:25.088Z,99.90
2018-12-03T08:41:55.250Z,99.90
2018-12-03T08:44:30.293Z,99.90
2018-12-03T08:47:08.023Z,99.90
2018-12-03T08:49:38.830Z,99.90
2018-12-03T08:52:13.132Z,99.90
2018-12-03T08:54:43.290Z,99.90
2018-12-03T08:57:13.732Z,99.90
2018-12-03T08:59:44.059Z,99.90
2018-12-03T09:02:14.367Z,99.90
2018-12-03T09:04:44.772Z,99.90
2018-12-03T09:07:15.046Z,99.90
2018-12-03T09:09:45.424Z,99.90
2018-12-03T09:12:15.669Z,99.90
2018-12-03T09:14:46.030Z,99.90
2018-12-03T09:17:16.378Z,99.90
2018-12-03T09:19:51.121Z,99.90
2018-12-03T09:22:21.242Z,99.90
2018-12-03T09:24:51.533Z,99.90
2018-12-03T09:27:28.388Z,99.90
2018-12-03T09:30:00.885Z,99.90
2018-12-03T09:32:34.817Z,99.90
2018-12-03T09:35:07.077Z,99.90
2018-12-03T09:37:37.212Z,99.90
2018-12-03T09:40:15.714Z,99.90
2018-12-03T09:42:46.126Z,99.90
2018-12-03T09:45:17.778Z,99.90
2018-12-03T09:47:48.553Z,99.90
2018-12-03T09:50:27.466Z,99.90
2018-12-03T09:52:58.119Z,99.90
2018-12-03T09:55:30.039Z,99.90
2018-12-03T09:58:13.135Z,99.90
2018-12-03T10:00:43.923Z,99.90
2018-12-03T10:03:34.319Z,99.90
2018-12-03T10:06:11.593Z,99.90
2018-12-03T10:08:41.868Z,99.90
2018-12-03T10:11:12.336Z,99.90
2018-12-03T10:13:42.646Z,99.90
2018-12-03T10:16:12.950Z,99.90
2018-12-03T10:18:47.791Z,99.90
2018-12-03T10:21:18.077Z,99.90
2018-12-03T10:23:48.474Z,99.90
2018-12-03T10:26:18.760Z,99.90
2018-12-03T10:28:49.017Z,99.90
2018-12-03T10:31:19.270Z,99.90
2018-12-03T10:33:49.514Z,99.90
2018-12-03T10:36:19.738Z,99.90
2018-12-03T10:38:50.484Z,99.90
2018-12-03T10:41:32.201Z,99.90
2018-12-03T10:44:03.562Z,99.90
2018-12-03T10:46:33.701Z,99.90
2018-12-03T10:49:08.224Z,99.90
2018-12-03T10:51:38.813Z,99.90
2018-12-03T10:54:09.233Z,99.90
2018-12-03T10:56:39.424Z,96.90
2018-12-03T10:59:09.737Z,80.10
2018-12-03T11:01:47.176Z,67.10
2018-12-03T11:04:22.266Z,59.00
2018-12-03T11:06:52.683Z,55.80
2018-12-03T11:09:25.377Z,53.70
2018-12-03T11:11:55.825Z,52.90
2018-12-03T11:14:26.002Z,52.10
2018-12-03T11:16:56.336Z,51.40
2018-12-03T11:19:26.814Z,50.10
2018-12-03T11:21:57.244Z,52.00
2018-12-03T11:24:27.564Z,52.80
2018-12-03T11:27:00.172Z,54.10
2018-12-03T11:29:30.874Z,55.90
2018-12-03T11:32:01.215Z,58.40
2018-12-03T11:34:31.573Z,58.40
2018-12-03T11:37:02.902Z,59.30
2018-12-03T11:39:45.830Z,62.70
2018-12-03T11:42:16.350Z,65.00
2018-12-03T11:44:46.640Z,64.80
2018-12-03T11:47:17.037Z,63.60
2018-12-03T11:49:47.197Z,65.80
2018-12-03T11:52:17.642Z,70.00
2018-12-03T11:54:47.941Z,67.90
2018-12-03T11:57:18.141Z,61.00
2018-12-03T11:59:48.505Z,54.70
2018-12-03T12:02:18.956Z,51.30
2018-12-03T12:04:49.348Z,49.90
2018-12-03T12:07:19.481Z,46.90
2018-12-03T12:09:49.738Z,43.50
2018-12-03T12:12:20.048Z,40.00
2018-12-03T12:14:50.232Z,38.60
2018-12-03T12:17:20.375Z,37.80
2018-12-03T12:19:50.668Z,36.00
2018-12-03T12:22:20.867Z,34.60
2018-12-03T12:24:51.008Z,33.90
2018-12-03T12:27:21.422Z,33.00
2018-12-03T12:29:51.666Z,32.30
2018-12-03T12:32:21.928Z,31.70
2018-12-03T12:34:52.213Z,30.90
2018-12-03T12:37:22.678Z,30.80
2018-12-03T12:39:52.929Z,30.80
2018-12-03T12:42:23.270Z,30.40
2018-12-03T12:44:59.588Z,30.00
2018-12-03T12:47:29.485Z,30.30
2018-12-03T12:49:59.953Z,30.30
2018-12-03T12:52:30.121Z,30.10
2018-12-03T12:55:00.453Z,30.80
2018-12-03T12:57:30.837Z,30.70
2018-12-03T13:00:01.093Z,31.20
2018-12-03T13:02:31.458Z,31.50
2018-12-03T13:05:01.705Z,31.40
2018-12-03T13:07:32.101Z,31.00
2018-12-03T13:10:02.397Z,31.80
2018-12-03T13:12:32.600Z,31.60
2018-12-03T13:15:03.005Z,32.70
2018-12-03T13:17:33.396Z,33.60
2018-12-03T13:20:03.810Z,35.00
2018-12-03T13:22:37.876Z,34.70
2018-12-03T13:25:16.501Z,35.90
2018-12-03T13:27:46.969Z,37.70
2018-12-03T13:30:17.874Z,40.20
2018-12-03T13:32:48.617Z,42.90
2018-12-03T13:35:18.904Z,45.00
2018-12-03T13:37:49.077Z,46.00
2018-12-03T13:40:19.472Z,47.40
2018-12-03T13:42:49.861Z,48.90
2018-12-03T13:45:24.026Z,49.20
2018-12-03T13:47:56.278Z,50.10
2018-12-03T13:50:26.828Z,51.00
2018-12-03T13:52:57.357Z,51.70
2018-12-03T13:55:27.531Z,51.90
2018-12-03T13:57:57.955Z,51.70
2018-12-03T14:00:28.433Z,49.00
2018-12-03T14:03:08.433Z,46.00
2018-12-03T14:05:51.583Z,44.10
2018-12-03T14:09:50.949Z,43.60
2018-12-03T14:12:37.531Z,43.30
2018-12-03T14:15:27.557Z,45.40
2018-12-03T14:18:16.301Z,47.90
2018-12-03T14:20:49.686Z,51.10
2018-12-03T14:23:25.553Z,54.00
2018-12-03T14:25:55.969Z,56.70
2018-12-03T14:28:27.267Z,59.80
2018-12-03T14:30:57.668Z,62.40
2018-12-03T14:33:28.032Z,66.20
2018-12-03T14:35:58.513Z,70.10
2018-12-03T14:38:29.812Z,72.10
2018-12-03T14:41:00.197Z,74.30
2018-12-03T14:43:30.375Z,77.90
2018-12-03T14:46:00.840Z,81.30
2018-12-03T14:48:31.242Z,85.30
2018-12-03T14:51:01.451Z,90.10
2018-12-03T14:53:31.828Z,92.20
2018-12-03T14:56:02.241Z,94.30
2018-12-03T14:58:32.586Z,96.70
2018-12-03T15:01:02.893Z,99.90
2018-12-03T15:03:33.226Z,99.90
2018-12-03T15:06:03.607Z,99.90
2018-12-03T15:08:33.791Z,99.90
2018-12-03T15:11:04.185Z,99.90
2018-12-03T15:13:34.378Z,99.90
2018-12-03T15:16:04.841Z,99.90
2018-12-03T15:18:35.251Z,99.90
2018-12-03T15:21:05.523Z,99.90
2018-12-03T15:23:35.872Z,99.90
2018-12-03T15:26:06.384Z,99.90
2018-12-03T15:28:36.579Z,99.90
2018-12-03T15:31:06.909Z,99.90
2018-12-03T15:33:37.397Z,99.90
2018-12-03T15:36:07.605Z,99.90
2018-12-03T15:38:37.992Z,99.90
2018-12-03T15:41:09.060Z,99.90
2018-12-03T15:43:40.534Z,99.90
2018-12-03T15:46:10.877Z,99.90
2018-12-03T15:48:41.057Z,99.90
2018-12-03T15:51:11.626Z,99.90
2018-12-03T15:53:42.054Z,99.90
2018-12-03T15:56:12.447Z,99.90
2018-12-03T15:58:42.737Z,99.90
2018-12-03T16:01:14.490Z,99.90
2018-12-03T16:03:43.536Z,99.90
2018-12-03T16:06:13.991Z,99.90
2018-12-03T16:08:44.150Z,99.90
2018-12-03T16:11:14.522Z,99.90
2018-12-03T16:13:44.881Z,99.90
2018-12-03T16:16:15.197Z,99.90
2018-12-03T16:18:45.369Z,99.90
2018-12-03T16:21:15.722Z,99.90
2018-12-03T16:23:46.032Z,99.90
2018-12-03T16:26:16.471Z,99.90
2018-12-03T16:28:47.495Z,99.90
2018-12-03T16:31:17.801Z,99.90
2018-12-03T16:33:48.202Z,99.90
2018-12-03T16:36:18.597Z,99.90
2018-12-03T16:38:48.935Z,99.90
2018-12-03T16:41:19.083Z,99.90
2018-12-03T16:43:49.386Z,99.90
2018-12-03T16:46:19.735Z,99.90
2018-12-03T16:48:49.943Z,99.90
2018-12-03T16:51:20.303Z,99.90
2018-12-03T16:53:50.699Z,99.90
2018-12-03T16:56:20.781Z,99.90
2018-12-03T16:58:51.041Z,99.90
2018-12-03T17:01:21.365Z,99.90
2018-12-03T17:03:51.977Z,99.90
2018-12-03T17:06:22.509Z,99.90
2018-12-03T17:08:52.929Z,99.90
2018-12-03T17:11:23.236Z,99.90
2018-12-03T17:13:53.485Z,99.90
2018-12-03T17:16:23.794Z,99.90
2018-12-03T17:18:54.197Z,99.90
2018-12-03T17:22:04.264Z,99.90
2018-12-03T17:24:38.002Z,99.90
2018-12-03T17:27:08.528Z,99.90
2018-12-03T17:29:38.752Z,99.90
2018-12-03T17:32:09.048Z,99.90
2018-12-03T17:34:39.401Z,99.90
2018-12-03T17:37:09.775Z,99.90
2018-12-03T17:39:40.015Z,99.90
2018-12-03T17:42:10.244Z,99.90
2018-12-03T17:44:40.618Z,99.90
2018-12-03T17:47:11.022Z,99.90
2018-12-03T17:49:41.310Z,99.90
2018-12-03T17:52:11.686Z,99.90
2018-12-03T17:54:41.982Z,99.90
2018-12-03T17:57:12.552Z,99.90
2018-12-03T17:59:42.785Z,99.90
2018-12-03T18:02:13.180Z,99.90
2018-12-03T18:04:43.599Z,99.90
2018-12-03T18:07:14.044Z,99.90
2018-12-03T18:09:44.379Z,99.90
2018-12-03T18:12:14.956Z,99.90
2018-12-03T18:14:45.379Z,99.90
2018-12-03T18:17:15.835Z,99.90
2018-12-03T18:19:46.209Z,99.90
2018-12-03T18:22:16.534Z,99.90
2018-12-03T18:24:46.894Z,99.90
2018-12-03T18:27:17.236Z,99.90
2018-12-03T18:29:47.673Z,99.90
2018-12-03T18:32:17.994Z,99.90
2018-12-03T18:34:48.279Z,99.90
2018-12-03T18:37:18.755Z,99.90
2018-12-03T18:39:49.004Z,99.90
2018-12-03T18:42:19.336Z,99.90
2018-12-03T18:44:49.804Z,99.90
2018-12-03T18:47:20.101Z,99.90
2018-12-03T18:49:53.410Z,99.90
2018-12-03T18:52:24.585Z,99.90
2018-12-03T18:54:54.975Z,99.90
2018-12-03T18:57:25.426Z,99.90
2018-12-03T18:59:55.875Z,99.90
2018-12-03T19:02:26.186Z,99.90
2018-12-03T19:04:56.490Z,99.90
2018-12-03T19:07:26.902Z,99.90
2018-12-03T19:09:57.333Z,99.90
2018-12-03T19:12:27.562Z,99.90
2018-12-03T19:14:57.948Z,99.90
2018-12-03T19:17:28.334Z,99.90
2018-12-03T19:19:58.760Z,99.90
2018-12-03T19:22:29.181Z,99.90
2018-12-03T19:24:59.421Z,99.90
2018-12-03T19:27:29.717Z,99.90
2018-12-03T19:30:00.113Z,99.90
2018-12-03T19:32:30.512Z,99.90
2018-12-03T19:35:00.862Z,99.90
2018-12-03T19:37:31.149Z,99.90
2018-12-03T19:40:01.431Z,99.90
2018-12-03T19:42:31.810Z,99.90
2018-12-03T19:45:02.164Z,99.90
2018-12-03T19:47:32.383Z,99.90
2018-12-03T19:50:02.785Z,99.90
2018-12-03T19:52:33.197Z,99.90
2018-12-03T19:55:04.097Z,99.90
2018-12-03T19:57:35.803Z,99.90
2018-12-03T20:00:09.624Z,99.90
2018-12-03T20:02:40.018Z,99.90
2018-12-03T20:05:18.207Z,99.90
2018-12-03T20:07:48.534Z,99.90
2018-12-03T20:10:18.924Z,99.90
2018-12-03T20:12:49.283Z,99.90
2018-12-03T20:15:19.594Z,99.90
2018-12-03T20:17:49.997Z,99.90
2018-12-03T20:20:27.305Z,99.90
2018-12-03T20:23:04.367Z,99.90
2018-12-03T20:25:48.156Z,99.90
2018-12-03T20:28:26.045Z,99.90
2018-12-03T20:33:07.394Z,99.90
2018-12-03T20:36:19.806Z,99.90
2018-12-03T20:39:35.501Z,99.90
2018-12-03T20:42:06.437Z,99.90
2018-12-03T20:44:52.473Z,99.90
2018-12-03T20:47:30.134Z,99.90
2018-12-03T20:50:45.046Z,99.90
2018-12-03T20:53:19.249Z,99.90
2018-12-03T20:55:50.038Z,99.90
2018-12-03T20:58:20.715Z,99.90
2018-12-03T21:00:51.368Z,99.90
2018-12-03T21:03:21.595Z,99.90
2018-12-03T21:05:51.974Z,99.90
2018-12-03T21:08:22.485Z,99.90
2018-12-03T21:10:52.987Z,99.90
2018-12-03T21:13:23.541Z,99.90
2018-12-03T21:15:55.175Z,99.90
2018-12-03T21:18:26.021Z,99.90
2018-12-03T21:20:56.519Z,99.90
2018-12-03T21:23:27.113Z,99.90
2018-12-03T21:25:57.778Z,99.90
2018-12-03T21:28:28.358Z,99.90
2018-12-03T21:30:58.597Z,99.90
2018-12-03T21:33:29.031Z,99.90
2018-12-03T21:35:59.658Z,99.90
2018-12-03T21:38:30.037Z,99.90
2018-12-03T21:41:00.328Z,99.90
2018-12-03T21:43:30.718Z,99.90
2018-12-03T21:46:00.991Z,99.90
2018-12-03T21:48:31.385Z,99.90
2018-12-03T21:51:01.809Z,99.90
2018-12-03T21:53:32.437Z,99.90
2018-12-03T21:56:02.715Z,99.90
2018-12-03T21:58:32.929Z,99.90
2018-12-03T22:01:03.250Z,99.90
2018-12-03T22:03:33.513Z,99.90
2018-12-03T22:06:03.925Z,99.90
2018-12-03T22:08:34.486Z,99.90
2018-12-03T22:11:04.846Z,99.90
2018-12-03T22:13:35.194Z,99.90
2018-12-03T22:16:05.626Z,99.90
2018-12-03T22:18:36.000Z,99.90
2018-12-03T22:21:06.382Z,99.90
2018-12-03T22:23:36.804Z,99.90
2018-12-03T22:26:07.176Z,99.90
2018-12-03T22:28:37.659Z,99.90
2018-12-03T22:31:08.133Z,99.90
2018-12-03T22:33:38.792Z,99.90
2018-12-03T22:36:09.356Z,99.90
2018-12-03T22:38:39.625Z,99.90
2018-12-03T22:41:09.994Z,99.90
2018-12-03T22:43:40.575Z,99.90
2018-12-03T22:46:10.981Z,99.90
2018-12-03T22:48:41.419Z,99.90
2018-12-03T22:51:11.766Z,99.90
2018-12-03T22:53:42.136Z,99.90
2018-12-03T22:56:12.556Z,99.90
2018-12-03T22:58:42.997Z,99.90
2018-12-03T23:01:13.255Z,99.90
2018-12-03T23:03:43.572Z,99.90
2018-12-03T23:06:14.005Z,99.90
2018-12-03T23:08:44.148Z,99.90
2018-12-03T23:11:14.499Z,99.90
2018-12-03T23:13:44.816Z,99.90
2018-12-03T23:16:15.225Z,99.90
2018-12-03T23:18:45.476Z,99.90
2018-12-03T23:21:15.956Z,99.90
2018-12-03T23:23:46.230Z,99.90
2018-12-03T23:26:16.501Z,99.90
2018-12-03T23:28:46.791Z,99.90
2018-12-03T23:31:17.194Z,99.90
2018-12-03T23:33:47.700Z,99.90
2018-12-03T23:36:18.566Z,99.90
2018-12-03T23:38:48.848Z,99.90
2018-12-03T23:41:19.736Z,99.90
2018-12-03T23:43:49.944Z,99.90
2018-12-03T23:46:20.790Z,99.90
2018-12-03T23:48:51.008Z,99.90
2018-12-03T23:51:21.184Z,99.90
2018-12-03T23:53:51.376Z,99.90
2018-12-03T23:56:21.625Z,99.90
2018-12-03T23:58:52.091Z,99.90
